sensor_id;sensor_type;location;lat;lon;timestamp;P1;P2;P0
72307;PMS5003;60257;42.638;23.376;2023-05-07T00:01:47;17.33;17.33;10.67
72307;PMS5003;60257;42.638;23.376;2023-05-07T00:04:12;17.00;17.00;11.33
72307;PMS5003;60257;42.638;23.376;2023-05-07T00:06:38;13.33;13.33;10.00
72307;PMS5003;60257;42.638;23.376;2023-05-07T00:09:05;18.67;17.67;11.00
72307;PMS5003;60257;42.638;23.376;2023-05-07T00:11:31;18.33;17.00;10.33
72307;PMS5003;60257;42.638;23.376;2023-05-07T00:13:57;19.33;19.00;12.00
72307;PMS5003;60257;42.638;23.376;2023-05-07T00:16:22;19.00;15.67;9.33
72307;PMS5003;60257;42.638;23.376;2023-05-07T00:18:48;16.00;15.00;11.00
72307;PMS5003;60257;42.638;23.376;2023-05-07T00:21:13;19.00;17.00;11.00
72307;PMS5003;60257;42.638;23.376;2023-05-07T00:23:39;19.00;18.00;12.00
72307;PMS5003;60257;42.638;23.376;2023-05-07T00:26:04;21.00;19.67;14.00
72307;PMS5003;60257;42.638;23.376;2023-05-07T00:28:30;16.00;16.00;11.33
72307;PMS5003;60257;42.638;23.376;2023-05-07T00:30:55;16.67;16.67;10.67
72307;PMS5003;60257;42.638;23.376;2023-05-07T00:33:21;20.67;19.00;13.00
72307;PMS5003;60257;42.638;23.376;2023-05-07T00:35:47;22.33;22.33;14.67
72307;PMS5003;60257;42.638;23.376;2023-05-07T00:38:13;25.00;24.67;16.33
72307;PMS5003;60257;42.638;23.376;2023-05-07T00:40:38;23.67;23.67;14.67
72307;PMS5003;60257;42.638;23.376;2023-05-07T00:43:04;25.33;24.33;18.67
72307;PMS5003;60257;42.638;23.376;2023-05-07T00:45:29;22.00;20.00;16.00
72307;PMS5003;60257;42.638;23.376;2023-05-07T00:47:55;33.67;27.00;18.33
72307;PMS5003;60257;42.638;23.376;2023-05-07T00:50:24;34.00;31.00;23.00
72307;PMS5003;60257;42.638;23.376;2023-05-07T00:52:51;29.00;26.33;18.00
72307;PMS5003;60257;42.638;23.376;2023-05-07T00:55:17;32.67;26.00;17.33
72307;PMS5003;60257;42.638;23.376;2023-05-07T00:57:43;24.67;21.00;14.33
72307;PMS5003;60257;42.638;23.376;2023-05-07T01:00:09;21.67;21.33;13.33
72307;PMS5003;60257;42.638;23.376;2023-05-07T01:02:37;22.00;18.00;11.00
72307;PMS5003;60257;42.638;23.376;2023-05-07T01:05:03;19.00;18.33;14.00
72307;PMS5003;60257;42.638;23.376;2023-05-07T01:07:32;20.33;19.33;12.00
72307;PMS5003;60257;42.638;23.376;2023-05-07T01:09:59;15.67;15.00;12.67
72307;PMS5003;60257;42.638;23.376;2023-05-07T01:12:26;15.00;15.00;9.67
72307;PMS5003;60257;42.638;23.376;2023-05-07T01:14:53;18.00;17.33;11.67
72307;PMS5003;60257;42.638;23.376;2023-05-07T01:17:18;19.00;17.00;13.00
72307;PMS5003;60257;42.638;23.376;2023-05-07T01:19:44;19.33;17.67;12.00
72307;PMS5003;60257;42.638;23.376;2023-05-07T01:22:10;18.33;18.00;13.67
72307;PMS5003;60257;42.638;23.376;2023-05-07T01:24:36;23.00;23.00;15.00
72307;PMS5003;60257;42.638;23.376;2023-05-07T01:27:02;11.00;11.00;5.67
72307;PMS5003;60257;42.638;23.376;2023-05-07T01:29:28;23.00;23.00;16.00
72307;PMS5003;60257;42.638;23.376;2023-05-07T01:31:54;19.67;19.67;12.33
72307;PMS5003;60257;42.638;23.376;2023-05-07T01:34:24;25.67;24.00;15.33
72307;PMS5003;60257;42.638;23.376;2023-05-07T01:36:52;27.00;25.67;16.00
72307;PMS5003;60257;42.638;23.376;2023-05-07T01:39:21;16.00;15.67;13.33
72307;PMS5003;60257;42.638;23.376;2023-05-07T01:41:49;23.67;22.67;16.67
72307;PMS5003;60257;42.638;23.376;2023-05-07T01:44:15;27.00;27.00;19.67
72307;PMS5003;60257;42.638;23.376;2023-05-07T01:46:43;37.00;32.67;19.00
72307;PMS5003;60257;42.638;23.376;2023-05-07T01:49:09;30.33;28.67;21.00
72307;PMS5003;60257;42.638;23.376;2023-05-07T01:51:35;34.00;31.33;21.67
72307;PMS5003;60257;42.638;23.376;2023-05-07T01:54:01;31.67;30.67;19.33
72307;PMS5003;60257;42.638;23.376;2023-05-07T01:56:26;28.67;26.33;17.00
72307;PMS5003;60257;42.638;23.376;2023-05-07T01:58:52;32.67;32.33;21.00
72307;PMS5003;60257;42.638;23.376;2023-05-07T02:01:17;35.33;33.67;23.00
72307;PMS5003;60257;42.638;23.376;2023-05-07T02:03:43;30.00;28.33;19.00
72307;PMS5003;60257;42.638;23.376;2023-05-07T02:06:09;32.67;32.33;20.33
72307;PMS5003;60257;42.638;23.376;2023-05-07T02:08:34;32.00;27.67;21.33
72307;PMS5003;60257;42.638;23.376;2023-05-07T02:11:00;29.33;29.33;19.00
72307;PMS5003;60257;42.638;23.376;2023-05-07T02:13:30;32.00;31.67;20.67
72307;PMS5003;60257;42.638;23.376;2023-05-07T02:15:58;35.67;34.33;22.00
72307;PMS5003;60257;42.638;23.376;2023-05-07T02:18:23;32.00;30.67;22.00
72307;PMS5003;60257;42.638;23.376;2023-05-07T02:20:49;28.33;28.33;21.33
72307;PMS5003;60257;42.638;23.376;2023-05-07T02:23:14;31.67;30.33;20.67
72307;PMS5003;60257;42.638;23.376;2023-05-07T02:25:40;30.00;30.00;20.00
72307;PMS5003;60257;42.638;23.376;2023-05-07T02:28:05;30.33;30.33;20.00
72307;PMS5003;60257;42.638;23.376;2023-05-07T02:30:31;35.67;34.67;22.67
72307;PMS5003;60257;42.638;23.376;2023-05-07T02:32:56;34.00;32.33;22.00
72307;PMS5003;60257;42.638;23.376;2023-05-07T02:35:21;33.33;33.33;21.33
72307;PMS5003;60257;42.638;23.376;2023-05-07T02:37:48;34.00;34.00;22.00
72307;PMS5003;60257;42.638;23.376;2023-05-07T02:40:14;36.00;34.33;22.33
72307;PMS5003;60257;42.638;23.376;2023-05-07T02:42:39;36.67;34.33;23.00
72307;PMS5003;60257;42.638;23.376;2023-05-07T02:45:05;37.67;35.00;22.00
72307;PMS5003;60257;42.638;23.376;2023-05-07T02:47:31;34.33;34.00;22.67
72307;PMS5003;60257;42.638;23.376;2023-05-07T02:49:56;27.00;25.33;17.67
72307;PMS5003;60257;42.638;23.376;2023-05-07T02:52:22;31.67;30.67;22.00
72307;PMS5003;60257;42.638;23.376;2023-05-07T02:54:47;35.67;31.67;20.67
72307;PMS5003;60257;42.638;23.376;2023-05-07T02:57:13;29.67;29.00;18.67
72307;PMS5003;60257;42.638;23.376;2023-05-07T02:59:38;33.33;32.33;22.67
72307;PMS5003;60257;42.638;23.376;2023-05-07T03:02:04;33.67;33.00;22.67
72307;PMS5003;60257;42.638;23.376;2023-05-07T03:04:30;36.33;34.67;21.67
72307;PMS5003;60257;42.638;23.376;2023-05-07T03:06:56;36.33;35.33;23.00
72307;PMS5003;60257;42.638;23.376;2023-05-07T03:09:21;38.67;35.67;22.00
72307;PMS5003;60257;42.638;23.376;2023-05-07T03:11:47;35.00;32.67;21.33
72307;PMS5003;60257;42.638;23.376;2023-05-07T03:14:12;34.67;33.67;22.33
72307;PMS5003;60257;42.638;23.376;2023-05-07T03:16:38;35.33;35.00;22.33
72307;PMS5003;60257;42.638;23.376;2023-05-07T03:19:03;36.33;34.33;19.00
72307;PMS5003;60257;42.638;23.376;2023-05-07T03:21:29;40.33;36.00;22.67
72307;PMS5003;60257;42.638;23.376;2023-05-07T03:23:55;41.00;37.00;22.33
72307;PMS5003;60257;42.638;23.376;2023-05-07T03:26:21;41.00;34.67;23.00
72307;PMS5003;60257;42.638;23.376;2023-05-07T03:28:47;38.33;37.00;23.00
72307;PMS5003;60257;42.638;23.376;2023-05-07T03:31:12;37.33;36.33;23.00
72307;PMS5003;60257;42.638;23.376;2023-05-07T03:33:39;42.33;37.33;23.00
72307;PMS5003;60257;42.638;23.376;2023-05-07T03:36:15;41.67;38.33;24.33
72307;PMS5003;60257;42.638;23.376;2023-05-07T03:38:41;42.67;37.67;24.33
72307;PMS5003;60257;42.638;23.376;2023-05-07T03:41:06;41.67;37.67;23.00
72307;PMS5003;60257;42.638;23.376;2023-05-07T03:43:32;36.67;34.33;23.00
72307;PMS5003;60257;42.638;23.376;2023-05-07T03:45:57;38.67;35.00;17.33
72307;PMS5003;60257;42.638;23.376;2023-05-07T03:48:22;42.67;38.00;24.67
72307;PMS5003;60257;42.638;23.376;2023-05-07T03:50:48;38.67;35.00;23.00
72307;PMS5003;60257;42.638;23.376;2023-05-07T03:53:13;33.33;30.33;21.00
72307;PMS5003;60257;42.638;23.376;2023-05-07T03:55:39;47.00;41.00;25.00
72307;PMS5003;60257;42.638;23.376;2023-05-07T03:58:04;37.67;35.00;19.00
72307;PMS5003;60257;42.638;23.376;2023-05-07T04:00:30;41.33;37.33;23.00
72307;PMS5003;60257;42.638;23.376;2023-05-07T04:02:58;42.67;39.00;23.00
72307;PMS5003;60257;42.638;23.376;2023-05-07T04:05:24;37.00;35.00;22.33
72307;PMS5003;60257;42.638;23.376;2023-05-07T04:07:49;39.00;35.00;22.00
72307;PMS5003;60257;42.638;23.376;2023-05-07T04:10:15;33.00;32.00;19.67
72307;PMS5003;60257;42.638;23.376;2023-05-07T04:12:41;38.67;36.33;23.00
72307;PMS5003;60257;42.638;23.376;2023-05-07T04:15:06;35.33;34.33;22.67
72307;PMS5003;60257;42.638;23.376;2023-05-07T04:17:32;37.67;36.00;23.00
72307;PMS5003;60257;42.638;23.376;2023-05-07T04:19:58;30.67;29.00;16.00
72307;PMS5003;60257;42.638;23.376;2023-05-07T04:22:23;40.67;36.33;23.67
72307;PMS5003;60257;42.638;23.376;2023-05-07T04:24:48;38.67;36.00;23.67
72307;PMS5003;60257;42.638;23.376;2023-05-07T04:27:14;40.00;36.67;23.00
72307;PMS5003;60257;42.638;23.376;2023-05-07T04:29:40;33.00;32.33;22.67
72307;PMS5003;60257;42.638;23.376;2023-05-07T04:32:08;37.33;34.33;22.00
72307;PMS5003;60257;42.638;23.376;2023-05-07T04:34:34;40.33;35.33;23.00
72307;PMS5003;60257;42.638;23.376;2023-05-07T04:37:00;38.67;33.67;21.33
72307;PMS5003;60257;42.638;23.376;2023-05-07T04:39:26;35.00;32.33;23.33
72307;PMS5003;60257;42.638;23.376;2023-05-07T04:41:52;40.00;36.00;20.67
72307;PMS5003;60257;42.638;23.376;2023-05-07T04:44:17;42.33;36.00;22.00
72307;PMS5003;60257;42.638;23.376;2023-05-07T04:46:42;40.00;36.00;24.00
72307;PMS5003;60257;42.638;23.376;2023-05-07T04:49:08;39.67;36.00;23.67
72307;PMS5003;60257;42.638;23.376;2023-05-07T04:51:33;35.00;34.00;22.00
72307;PMS5003;60257;42.638;23.376;2023-05-07T04:53:59;41.33;37.33;21.67
72307;PMS5003;60257;42.638;23.376;2023-05-07T04:56:27;37.67;34.33;22.00
72307;PMS5003;60257;42.638;23.376;2023-05-07T04:58:53;37.33;34.67;22.00
72307;PMS5003;60257;42.638;23.376;2023-05-07T05:01:19;39.00;35.33;24.00
72307;PMS5003;60257;42.638;23.376;2023-05-07T05:03:44;37.67;36.00;22.00
72307;PMS5003;60257;42.638;23.376;2023-05-07T05:06:10;32.67;32.67;18.33
72307;PMS5003;60257;42.638;23.376;2023-05-07T05:08:35;39.00;34.33;25.33
72307;PMS5003;60257;42.638;23.376;2023-05-07T05:11:01;36.00;33.00;20.67
72307;PMS5003;60257;42.638;23.376;2023-05-07T05:13:27;30.67;30.67;22.00
72307;PMS5003;60257;42.638;23.376;2023-05-07T05:15:53;35.67;34.67;21.67
72307;PMS5003;60257;42.638;23.376;2023-05-07T05:18:18;38.00;36.00;22.00
72307;PMS5003;60257;42.638;23.376;2023-05-07T05:20:44;38.00;36.00;22.00
72307;PMS5003;60257;42.638;23.376;2023-05-07T05:23:09;30.00;28.67;19.67
72307;PMS5003;60257;42.638;23.376;2023-05-07T05:25:35;42.67;37.00;24.33
72307;PMS5003;60257;42.638;23.376;2023-05-07T05:28:00;37.33;35.33;22.00
72307;PMS5003;60257;42.638;23.376;2023-05-07T05:30:26;27.67;27.67;15.33
72307;PMS5003;60257;42.638;23.376;2023-05-07T05:32:51;35.00;34.00;21.33
72307;PMS5003;60257;42.638;23.376;2023-05-07T05:35:17;33.00;33.00;21.00
72307;PMS5003;60257;42.638;23.376;2023-05-07T05:37:42;42.00;36.67;22.00
72307;PMS5003;60257;42.638;23.376;2023-05-07T05:40:08;35.00;34.00;21.00
72307;PMS5003;60257;42.638;23.376;2023-05-07T05:42:34;29.00;27.00;15.67
72307;PMS5003;60257;42.638;23.376;2023-05-07T05:44:59;35.00;33.00;21.00
72307;PMS5003;60257;42.638;23.376;2023-05-07T05:47:25;35.00;31.67;19.67
72307;PMS5003;60257;42.638;23.376;2023-05-07T05:49:50;36.00;35.00;23.00
72307;PMS5003;60257;42.638;23.376;2023-05-07T05:52:15;41.00;36.67;24.00
72307;PMS5003;60257;42.638;23.376;2023-05-07T05:54:42;33.33;33.00;20.00
72307;PMS5003;60257;42.638;23.376;2023-05-07T05:57:07;32.67;32.67;22.00
72307;PMS5003;60257;42.638;23.376;2023-05-07T05:59:33;31.67;31.67;19.33
72307;PMS5003;60257;42.638;23.376;2023-05-07T06:01:58;35.00;34.00;21.00
72307;PMS5003;60257;42.638;23.376;2023-05-07T06:04:24;34.33;32.00;20.00
72307;PMS5003;60257;42.638;23.376;2023-05-07T06:06:50;35.00;32.00;21.00
72307;PMS5003;60257;42.638;23.376;2023-05-07T06:09:15;29.33;29.33;18.00
72307;PMS5003;60257;42.638;23.376;2023-05-07T06:11:40;27.33;25.67;16.33
72307;PMS5003;60257;42.638;23.376;2023-05-07T06:14:06;28.67;27.00;18.00
72307;PMS5003;60257;42.638;23.376;2023-05-07T06:16:31;32.00;30.00;20.00
72307;PMS5003;60257;42.638;23.376;2023-05-07T06:18:57;37.67;33.33;21.00
72307;PMS5003;60257;42.638;23.376;2023-05-07T06:21:22;34.00;32.00;21.00
72307;PMS5003;60257;42.638;23.376;2023-05-07T06:23:48;28.67;28.00;18.00
72307;PMS5003;60257;42.638;23.376;2023-05-07T06:26:13;36.00;34.00;23.33
72307;PMS5003;60257;42.638;23.376;2023-05-07T06:28:39;29.00;29.00;19.00
72307;PMS5003;60257;42.638;23.376;2023-05-07T06:31:14;38.33;30.00;21.00
72307;PMS5003;60257;42.638;23.376;2023-05-07T06:33:41;31.33;29.67;18.00
72307;PMS5003;60257;42.638;23.376;2023-05-07T06:36:07;31.67;31.67;19.33
72307;PMS5003;60257;42.638;23.376;2023-05-07T06:38:33;31.33;30.00;19.33
72307;PMS5003;60257;42.638;23.376;2023-05-07T06:40:58;25.67;24.67;15.33
72307;PMS5003;60257;42.638;23.376;2023-05-07T06:43:24;29.33;29.00;18.00
72307;PMS5003;60257;42.638;23.376;2023-05-07T06:45:49;30.67;30.00;20.00
72307;PMS5003;60257;42.638;23.376;2023-05-07T06:48:15;25.33;24.67;15.00
72307;PMS5003;60257;42.638;23.376;2023-05-07T06:50:41;29.67;28.00;19.00
72307;PMS5003;60257;42.638;23.376;2023-05-07T06:53:06;29.33;27.33;20.00
72307;PMS5003;60257;42.638;23.376;2023-05-07T06:55:32;32.00;32.00;19.33
72307;PMS5003;60257;42.638;23.376;2023-05-07T06:57:57;27.00;26.33;20.00
72307;PMS5003;60257;42.638;23.376;2023-05-07T07:00:26;19.33;18.00;7.00
72307;PMS5003;60257;42.638;23.376;2023-05-07T07:02:52;33.67;31.33;21.00
72307;PMS5003;60257;42.638;23.376;2023-05-07T07:05:18;36.33;33.00;22.00
72307;PMS5003;60257;42.638;23.376;2023-05-07T07:07:43;38.67;33.33;19.67
72307;PMS5003;60257;42.638;23.376;2023-05-07T07:10:09;29.00;29.00;19.00
72307;PMS5003;60257;42.638;23.376;2023-05-07T07:12:35;31.67;30.67;20.33
72307;PMS5003;60257;42.638;23.376;2023-05-07T07:15:00;34.67;31.00;20.33
72307;PMS5003;60257;42.638;23.376;2023-05-07T07:17:26;34.00;32.33;20.67
72307;PMS5003;60257;42.638;23.376;2023-05-07T07:19:52;26.67;25.33;18.33
72307;PMS5003;60257;42.638;23.376;2023-05-07T07:22:17;29.00;28.00;19.00
72307;PMS5003;60257;42.638;23.376;2023-05-07T07:24:42;32.67;31.00;19.67
72307;PMS5003;60257;42.638;23.376;2023-05-07T07:27:08;30.33;29.67;20.00
72307;PMS5003;60257;42.638;23.376;2023-05-07T07:29:33;29.33;28.67;19.00
72307;PMS5003;60257;42.638;23.376;2023-05-07T07:31:59;32.33;30.00;19.00
72307;PMS5003;60257;42.638;23.376;2023-05-07T07:34:24;26.00;24.67;17.33
72307;PMS5003;60257;42.638;23.376;2023-05-07T07:36:50;32.00;28.33;19.67
72307;PMS5003;60257;42.638;23.376;2023-05-07T07:39:15;27.00;25.33;18.67
72307;PMS5003;60257;42.638;23.376;2023-05-07T07:41:41;25.00;23.67;17.33
72307;PMS5003;60257;42.638;23.376;2023-05-07T07:44:06;28.67;27.00;17.67
72307;PMS5003;60257;42.638;23.376;2023-05-07T07:46:32;29.00;28.67;21.00
72307;PMS5003;60257;42.638;23.376;2023-05-07T07:48:58;22.00;21.67;14.00
72307;PMS5003;60257;42.638;23.376;2023-05-07T07:51:24;16.00;16.00;13.00
72307;PMS5003;60257;42.638;23.376;2023-05-07T07:53:51;27.00;26.33;17.00
72307;PMS5003;60257;42.638;23.376;2023-05-07T07:56:17;26.33;25.67;16.67
72307;PMS5003;60257;42.638;23.376;2023-05-07T07:58:42;29.33;28.67;19.00
72307;PMS5003;60257;42.638;23.376;2023-05-07T08:01:07;27.67;25.33;17.33
72307;PMS5003;60257;42.638;23.376;2023-05-07T08:03:33;29.00;29.00;18.67
72307;PMS5003;60257;42.638;23.376;2023-05-07T08:05:58;30.00;29.00;18.33
72307;PMS5003;60257;42.638;23.376;2023-05-07T08:08:24;25.67;25.67;16.33
72307;PMS5003;60257;42.638;23.376;2023-05-07T08:10:49;30.33;29.33;19.67
72307;PMS5003;60257;42.638;23.376;2023-05-07T08:13:15;31.33;30.00;20.00
72307;PMS5003;60257;42.638;23.376;2023-05-07T08:15:42;26.33;26.33;18.00
72307;PMS5003;60257;42.638;23.376;2023-05-07T08:18:08;24.33;24.33;16.67
72307;PMS5003;60257;42.638;23.376;2023-05-07T08:20:35;29.33;26.67;19.00
72307;PMS5003;60257;42.638;23.376;2023-05-07T08:23:04;30.00;29.33;19.33
72307;PMS5003;60257;42.638;23.376;2023-05-07T08:25:32;24.00;24.00;17.00
72307;PMS5003;60257;42.638;23.376;2023-05-07T08:27:58;28.00;27.33;18.67
72307;PMS5003;60257;42.638;23.376;2023-05-07T08:30:24;28.67;27.67;19.33
72307;PMS5003;60257;42.638;23.376;2023-05-07T08:32:49;23.67;23.67;17.33
72307;PMS5003;60257;42.638;23.376;2023-05-07T08:35:15;27.67;27.33;18.00
72307;PMS5003;60257;42.638;23.376;2023-05-07T08:37:40;21.33;20.33;14.33
72307;PMS5003;60257;42.638;23.376;2023-05-07T08:40:06;27.00;25.33;18.33
72307;PMS5003;60257;42.638;23.376;2023-05-07T08:42:33;25.50;25.25;17.75
72307;PMS5003;60257;42.638;23.376;2023-05-07T08:45:02;26.00;26.00;20.00
72307;PMS5003;60257;42.638;23.376;2023-05-07T08:47:34;23.33;23.33;17.33
72307;PMS5003;60257;42.638;23.376;2023-05-07T08:50:04;29.67;27.33;19.33
72307;PMS5003;60257;42.638;23.376;2023-05-07T08:52:30;20.00;20.00;14.50
72307;PMS5003;60257;42.638;23.376;2023-05-07T08:54:56;21.00;21.00;15.00
72307;PMS5003;60257;42.638;23.376;2023-05-07T08:57:23;19.50;18.50;12.00
72307;PMS5003;60257;42.638;23.376;2023-05-07T08:59:49;18.25;17.00;11.00
72307;PMS5003;60257;42.638;23.376;2023-05-07T09:02:15;17.75;17.75;13.00
72307;PMS5003;60257;42.638;23.376;2023-05-07T09:04:41;19.25;18.50;12.75
72307;PMS5003;60257;42.638;23.376;2023-05-07T09:07:07;21.50;20.00;13.75
72307;PMS5003;60257;42.638;23.376;2023-05-07T09:09:33;25.25;24.75;16.25
72307;PMS5003;60257;42.638;23.376;2023-05-07T09:11:58;23.25;22.75;15.75
72307;PMS5003;60257;42.638;23.376;2023-05-07T09:14:25;22.50;22.00;15.25
72307;PMS5003;60257;42.638;23.376;2023-05-07T09:16:53;20.75;19.25;13.00
72307;PMS5003;60257;42.638;23.376;2023-05-07T09:19:23;17.50;17.50;13.25
72307;PMS5003;60257;42.638;23.376;2023-05-07T09:21:49;22.00;22.00;16.75
72307;PMS5003;60257;42.638;23.376;2023-05-07T09:24:15;23.50;20.00;14.00
72307;PMS5003;60257;42.638;23.376;2023-05-07T09:26:41;19.75;19.50;13.00
72307;PMS5003;60257;42.638;23.376;2023-05-07T09:29:07;23.00;21.50;16.25
72307;PMS5003;60257;42.638;23.376;2023-05-07T09:31:38;20.25;19.25;14.00
72307;PMS5003;60257;42.638;23.376;2023-05-07T09:34:04;20.50;19.25;13.00
72307;PMS5003;60257;42.638;23.376;2023-05-07T09:36:31;18.50;18.50;14.25
72307;PMS5003;60257;42.638;23.376;2023-05-07T09:38:59;22.25;21.25;15.25
72307;PMS5003;60257;42.638;23.376;2023-05-07T09:41:25;16.25;15.50;10.00
72307;PMS5003;60257;42.638;23.376;2023-05-07T09:43:54;23.50;22.75;15.25
72307;PMS5003;60257;42.638;23.376;2023-05-07T09:46:20;17.00;15.00;10.00
72307;PMS5003;60257;42.638;23.376;2023-05-07T09:48:52;20.50;19.25;12.50
72307;PMS5003;60257;42.638;23.376;2023-05-07T09:51:23;21.75;20.25;14.25
72307;PMS5003;60257;42.638;23.376;2023-05-07T09:53:53;21.50;21.25;15.25
72307;PMS5003;60257;42.638;23.376;2023-05-07T09:56:19;24.50;21.50;12.75
72307;PMS5003;60257;42.638;23.376;2023-05-07T09:58:46;20.00;20.00;14.50
72307;PMS5003;60257;42.638;23.376;2023-05-07T10:01:12;22.00;20.00;14.00
72307;PMS5003;60257;42.638;23.376;2023-05-07T10:03:41;22.50;19.25;12.00
72307;PMS5003;60257;42.638;23.376;2023-05-07T10:06:08;15.75;15.75;11.25
72307;PMS5003;60257;42.638;23.376;2023-05-07T10:08:35;17.50;16.00;11.25
72307;PMS5003;60257;42.638;23.376;2023-05-07T10:11:01;16.75;16.75;11.25
72307;PMS5003;60257;42.638;23.376;2023-05-07T10:13:28;14.75;13.50;9.25
72307;PMS5003;60257;42.638;23.376;2023-05-07T10:15:54;19.25;16.50;12.75
72307;PMS5003;60257;42.638;23.376;2023-05-07T10:18:21;21.00;20.00;14.25
72307;PMS5003;60257;42.638;23.376;2023-05-07T10:20:48;18.00;17.50;12.25
72307;PMS5003;60257;42.638;23.376;2023-05-07T10:23:18;21.50;21.50;13.50
72307;PMS5003;60257;42.638;23.376;2023-05-07T10:25:48;12.00;11.00;6.75
72307;PMS5003;60257;42.638;23.376;2023-05-07T10:28:14;16.75;16.75;12.00
72307;PMS5003;60257;42.638;23.376;2023-05-07T10:33:29;22.50;21.25;14.00
72307;PMS5003;60257;42.638;23.376;2023-05-07T10:35:59;23.00;23.00;15.25
72307;PMS5003;60257;42.638;23.376;2023-05-07T10:38:27;18.00;15.50;10.75
72307;PMS5003;60257;42.638;23.376;2023-05-07T10:40:53;15.25;15.25;13.75
72307;PMS5003;60257;42.638;23.376;2023-05-07T10:43:18;13.25;13.25;11.00
72307;PMS5003;60257;42.638;23.376;2023-05-07T10:46:01;14.00;14.00;10.50
72307;PMS5003;60257;42.638;23.376;2023-05-07T10:51:38;17.50;16.00;12.00
72307;PMS5003;60257;42.638;23.376;2023-05-07T10:56:39;21.25;20.75;15.00
72307;PMS5003;60257;42.638;23.376;2023-05-07T11:01:49;19.00;18.00;11.25
72307;PMS5003;60257;42.638;23.376;2023-05-07T11:04:19;18.50;18.50;14.00
72307;PMS5003;60257;42.638;23.376;2023-05-07T11:09:57;19.50;18.00;13.25
72307;PMS5003;60257;42.638;23.376;2023-05-07T11:15:06;17.25;16.25;11.50
72307;PMS5003;60257;42.638;23.376;2023-05-07T11:20:20;18.25;18.25;12.50
72307;PMS5003;60257;42.638;23.376;2023-05-07T11:22:46;19.50;18.25;12.00
72307;PMS5003;60257;42.638;23.376;2023-05-07T11:25:17;19.00;17.25;12.25
72307;PMS5003;60257;42.638;23.376;2023-05-07T11:27:46;19.75;18.50;12.25
72307;PMS5003;60257;42.638;23.376;2023-05-07T11:30:18;18.75;18.75;13.00
72307;PMS5003;60257;42.638;23.376;2023-05-07T11:32:44;18.75;18.75;13.75
72307;PMS5003;60257;42.638;23.376;2023-05-07T11:35:12;19.50;19.00;12.75
72307;PMS5003;60257;42.638;23.376;2023-05-07T11:37:40;21.25;21.25;14.75
72307;PMS5003;60257;42.638;23.376;2023-05-07T11:40:07;15.50;15.50;10.50
72307;PMS5003;60257;42.638;23.376;2023-05-07T11:42:34;16.75;16.75;12.75
72307;PMS5003;60257;42.638;23.376;2023-05-07T11:45:04;9.75;9.75;4.25
72307;PMS5003;60257;42.638;23.376;2023-05-07T11:47:33;21.75;20.25;15.00
72307;PMS5003;60257;42.638;23.376;2023-05-07T11:50:06;18.75;18.75;13.25
72307;PMS5003;60257;42.638;23.376;2023-05-07T11:52:33;23.00;22.00;15.25
72307;PMS5003;60257;42.638;23.376;2023-05-07T11:54:59;19.00;16.25;12.00
72307;PMS5003;60257;42.638;23.376;2023-05-07T11:57:26;16.75;15.50;11.25
72307;PMS5003;60257;42.638;23.376;2023-05-07T11:59:56;21.50;21.50;16.75
72307;PMS5003;60257;42.638;23.376;2023-05-07T12:02:22;18.50;18.50;13.50
72307;PMS5003;60257;42.638;23.376;2023-05-07T12:04:50;19.75;18.00;12.75
72307;PMS5003;60257;42.638;23.376;2023-05-07T12:07:15;20.25;20.25;15.00
72307;PMS5003;60257;42.638;23.376;2023-05-07T12:09:42;19.50;19.25;14.00
72307;PMS5003;60257;42.638;23.376;2023-05-07T12:12:08;21.50;21.00;15.75
72307;PMS5003;60257;42.638;23.376;2023-05-07T12:14:39;21.50;21.25;14.75
72307;PMS5003;60257;42.638;23.376;2023-05-07T12:17:05;18.75;18.75;14.00
72307;PMS5003;60257;42.638;23.376;2023-05-07T12:19:33;20.00;20.00;14.25
72307;PMS5003;60257;42.638;23.376;2023-05-07T12:22:00;16.50;16.50;12.25
72307;PMS5003;60257;42.638;23.376;2023-05-07T12:24:27;21.25;19.75;14.00
72307;PMS5003;60257;42.638;23.376;2023-05-07T12:26:53;22.75;22.75;14.75
72307;PMS5003;60257;42.638;23.376;2023-05-07T12:29:21;24.00;24.00;15.00
72307;PMS5003;60257;42.638;23.376;2023-05-07T12:31:47;17.25;17.25;12.25
72307;PMS5003;60257;42.638;23.376;2023-05-07T12:34:15;20.75;19.50;13.25
72307;PMS5003;60257;42.638;23.376;2023-05-07T12:36:40;20.25;20.25;15.00
72307;PMS5003;60257;42.638;23.376;2023-05-07T12:39:06;21.00;17.25;14.00
72307;PMS5003;60257;42.638;23.376;2023-05-07T12:44:23;22.50;21.00;15.00
72307;PMS5003;60257;42.638;23.376;2023-05-07T12:46:50;24.75;22.50;19.00
72307;PMS5003;60257;42.638;23.376;2023-05-07T12:49:16;23.25;22.25;16.00
72307;PMS5003;60257;42.638;23.376;2023-05-07T12:51:43;22.75;22.75;16.25
72307;PMS5003;60257;42.638;23.376;2023-05-07T12:54:09;15.75;15.75;14.25
72307;PMS5003;60257;42.638;23.376;2023-05-07T12:56:38;20.25;19.50;14.00
72307;PMS5003;60257;42.638;23.376;2023-05-07T12:59:05;21.75;21.50;14.75
72307;PMS5003;60257;42.638;23.376;2023-05-07T13:01:30;21.50;21.50;14.00
72307;PMS5003;60257;42.638;23.376;2023-05-07T13:04:02;24.75;23.00;16.00
72307;PMS5003;60257;42.638;23.376;2023-05-07T13:06:29;19.75;18.50;15.00
72307;PMS5003;60257;42.638;23.376;2023-05-07T13:08:55;19.25;19.25;14.25
72307;PMS5003;60257;42.638;23.376;2023-05-07T13:11:20;17.75;17.75;13.75
72307;PMS5003;60257;42.638;23.376;2023-05-07T13:13:46;17.50;17.50;13.00
72307;PMS5003;60257;42.638;23.376;2023-05-07T13:16:11;19.00;19.00;12.25
72307;PMS5003;60257;42.638;23.376;2023-05-07T13:18:38;20.25;20.25;14.75
72307;PMS5003;60257;42.638;23.376;2023-05-07T13:21:05;21.75;21.25;15.50
72307;PMS5003;60257;42.638;23.376;2023-05-07T13:23:30;13.50;13.50;10.00
72307;PMS5003;60257;42.638;23.376;2023-05-07T13:25:56;11.00;11.00;8.50
72307;PMS5003;60257;42.638;23.376;2023-05-07T13:28:22;16.50;14.00;10.00
72307;PMS5003;60257;42.638;23.376;2023-05-07T13:30:49;15.00;15.00;10.75
72307;PMS5003;60257;42.638;23.376;2023-05-07T13:33:16;13.75;13.75;9.50
72307;PMS5003;60257;42.638;23.376;2023-05-07T13:35:42;16.50;15.25;11.00
72307;PMS5003;60257;42.638;23.376;2023-05-07T13:38:08;17.25;15.25;9.75
72307;PMS5003;60257;42.638;23.376;2023-05-07T13:40:34;13.00;12.50;9.00
72307;PMS5003;60257;42.638;23.376;2023-05-07T13:42:59;10.25;10.25;7.00
72307;PMS5003;60257;42.638;23.376;2023-05-07T13:45:27;14.25;13.75;10.50
72307;PMS5003;60257;42.638;23.376;2023-05-07T13:47:54;13.50;13.50;9.50
72307;PMS5003;60257;42.638;23.376;2023-05-07T13:50:20;13.75;13.75;9.00
72307;PMS5003;60257;42.638;23.376;2023-05-07T13:52:46;12.75;11.00;9.75